Flight Track Log - Related Links

Times and Time Zones

All times are in EDT time to prevent confusion due to time zone crossing. See the EJA922 flight status page for this flight to view local times or setup timezone preferences in your user account.

Time Position Orientation Groundspeed Altitude Reporting Facility
EDT Latitude Longitude Course Direction KTS MPH feet Rate Location/Type
Wed 02:21:03 PM 44.0000 -69.1639 270° West 197 227 6,900  Level Boston Center
Wed 02:22:04 PM 43.9906 -69.2714 263° West 225 259 9,200 2,410 Climbing Boston Center
Wed 02:23:05 PM 43.9831 -69.3786 264° West 305 351 11,800 2,695 Climbing Boston Center
Wed 02:24:02 PM 43.9700 -69.5206 263° West 339 390 14,500 2,462 Climbing Boston Center
Wed 02:25:00 PM 43.9424 -70.1162 258° West  Level FlightAware Approximate
Wed 02:25:02 PM 43.9586 -69.6453 263° West 355 409 16,600  Level Boston Center
Wed 02:26:00 PM 43.9167 -70.2888 270° West  Level FlightAware Approximate
Wed 02:26:03 PM 43.9469 -69.7728 263° West 368 423 18,700  Level Boston Center
Wed 02:27:03 PM 43.9381 -69.9375 266° West 368 423 21,200 2,182 Climbing Boston Center
Wed 02:28:04 PM 43.9308 -70.0847 266° West 378 435 23,100 1,785 Climbing Boston Center
Wed 02:29:04 PM 43.9275 -70.2347 268° West 384 442 24,800 1,780 Climbing Boston Center
Wed 02:30:02 PM 43.9222 -70.3936 267° West 396 456 26,600 1,613 Climbing Boston Center
Wed 02:31:03 PM 43.9167 -70.5553 267° West 415 478 28,000 1,488 Climbing Boston Center
Wed 02:32:03 PM 43.9108 -70.7225 267° West 424 488 29,600 1,574 Climbing Boston Center
Wed 02:33:05 PM 43.9050 -70.8897 267° West 435 501 31,200 1,412 Climbing Boston Center
Wed 02:34:02 PM 43.8983 -71.0283 266° West 440 506 32,400 1,424 Climbing Boston Center
Wed 02:35:03 PM 43.8903 -71.2186 267° West 445 512 34,000 793 Climbing Boston Center
Wed 02:36:03 PM 43.8817 -71.4031 266° West 461 531 34,000  Level Boston Center
Wed 02:37:04 PM 43.8769 -71.6192 268° West 499 574 34,000  Level Boston Center
Wed 02:38:04 PM 43.8658 -71.8122 266° West 511 588 34,000 1,000 Level Boston Center
Wed 02:39:04 PM 43.8689 -71.9994 271° West 511 588 36,000 1,017 Climbing Boston Center
Wed 02:40:02 PM 43.9047 -72.1836 285° West 490 564 36,000  Level Boston Center
Wed 02:41:02 PM 43.9447 -72.3653 287° West 490 564 36,000 50 Level Boston Center
Wed 02:42:03 PM 43.9906 -72.5411 290° West 490 564 36,100 893 Climbing Boston Center
Wed 02:43:03 PM 44.0297 -72.7114 288° West 477 549 37,800 1,623 Climbing Boston Center
Wed 02:44:05 PM 44.0292 -72.8906 270° West 466 536 39,400 1,109 Climbing Boston Center
Wed 02:45:02 PM 44.0136 -73.0694 263° West 466 536 40,000 305 Climbing Boston Center
Wed 02:46:03 PM 43.9981 -73.2511 263° West 472 543 40,000  Level Boston Center
Wed 02:47:03 PM 43.9842 -73.4383 264° West 483 556 40,000  Level Boston Center
Wed 02:48:05 PM 43.9678 -73.6228 263° West 488 562 40,000  Level Boston Center
Wed 02:49:02 PM 43.9511 -73.8042 263° West 481 554 40,000  Level Boston Center
Wed 02:50:03 PM 43.9342 -73.9883 263° West 481 554 40,000  Level Boston Center
Wed 02:51:03 PM 43.9194 -74.1550 263° West 481 554 40,000  Level Boston Center
Wed 02:52:04 PM 43.9019 -74.3361 262° West 481 554 40,000  Level Boston Center
Wed 02:53:03 PM 43.8861 -74.5228 263° West 481 554 40,000  Level Boston Center
Wed 02:54:03 PM 43.8658 -74.7122 262° West 481 554 40,000  Level Boston Center
Wed 02:55:05 PM 43.8475 -74.8958 262° West 481 554 40,000  Level Boston Center
Wed 02:56:03 PM 43.8289 -75.0822 262° West 481 554 40,000  Level Boston Center
Wed 02:57:04 PM 43.8092 -75.2883 263° West 487 560 40,000  Level Boston Center
Wed 02:58:03 PM 43.7897 -75.4744 262° West 492 566 40,000  Level Boston Center
Wed 02:59:04 PM 43.7722 -75.6606 263° West 497 572 40,000  Level Boston Center
Wed 03:00:04 PM 43.7503 -75.8433 261° West 497 572 40,000  Level Boston Center
Wed 03:01:02 PM 43.7300 -76.0319 262° West 502 578 40,000  Level Boston Center
Wed 03:02:03 PM 43.7094 -76.2175 261° West 497 572 40,000  Level Boston Center
Wed 03:04:30 PM 43.6567 -76.6578 261° West 503 579 40,000  Level Cleveland Center
Wed 03:05:30 PM 43.6322 -76.8603 261° West 497 572 40,000  Level Cleveland Center
Wed 03:06:30 PM 43.6086 -77.0425 260° West 491 565 40,000  Level Cleveland Center
Wed 03:07:30 PM 43.5869 -77.2272 261° West 491 565 40,000  Level Cleveland Center
Wed 03:08:30 PM 43.5650 -77.4089 261° West 491 565 40,000  Level Cleveland Center
Wed 03:09:30 PM 43.5447 -77.5789 261° West 491 565 40,000  Level Cleveland Center
Wed 03:10:30 PM 43.5222 -77.7633 261° West 491 565 40,000  Level Cleveland Center
Wed 03:11:30 PM 43.4994 -77.9475 260° West 491 565 40,000  Level Cleveland Center
Wed 03:12:30 PM 43.4742 -78.1317 259° West 491 565 40,000  Level Cleveland Center
Wed 03:13:30 PM 43.4489 -78.3158 259° West 491 565 40,000  Level Cleveland Center
Wed 03:14:27 PM 43.4000 -78.4833 248° West 490 564 40,000  Level Toronto Center
Wed 03:15:27 PM 43.4000 -78.6667 270° West 490 564 40,000  Level Toronto Center
Wed 03:16:27 PM 43.3667 -78.8500 256° West 490 564 40,000  Level Toronto Center
Wed 03:17:27 PM 43.3333 -79.0333 256° West 490 564 40,000  Level Toronto Center
Wed 03:18:27 PM 43.3167 -79.2167 263° West 490 564 40,000  Level Toronto Center
Wed 03:19:27 PM 43.2833 -79.4000 256° West 490 564 40,000  Level Toronto Center
Wed 03:20:27 PM 43.2667 -79.5833 263° West 490 564 40,000  Level Toronto Center
Wed 03:21:27 PM 43.2333 -79.7667 256° West 490 564 40,000  Level Toronto Center
Wed 03:22:27 PM 43.2167 -79.9500 263° West 490 564 40,000  Level Toronto Center
Wed 03:23:27 PM 43.1833 -80.1333 256° West 490 564 40,000  Level Toronto Center
Wed 03:24:27 PM 43.1500 -80.3167 256° West 490 564 40,000  Level Toronto Center
Wed 03:25:27 PM 43.1333 -80.5000 263° West 490 564 40,000  Level Toronto Center
Wed 03:26:27 PM 43.1000 -80.6833 256° West 490 564 40,000  Level Toronto Center
Wed 03:27:27 PM 43.0667 -80.8667 256° West 480 552 40,000  Level Toronto Center
Wed 03:28:27 PM 43.0333 -81.0500 256° West 480 552 40,000  Level Toronto Center
Wed 03:29:27 PM 43.0167 -81.2000 261° West 480 552 40,000  Level Toronto Center
Wed 03:30:27 PM 43.0167 -81.4167 270° West 470 541 40,000  Level Toronto Center
Wed 03:31:27 PM 43.0167 -81.6000 270° West 470 541 40,000  Level Toronto Center
Wed 03:32:27 PM 43.0167 -81.7500 270° West 470 541 40,000  Level Toronto Center
Wed 03:33:27 PM 43.0000 -81.9333 263° West 470 541 40,000  Level Toronto Center
Wed 03:34:27 PM 43.0000 -82.1167 270° West 470 541 40,000  Level Toronto Center
Wed 03:35:27 PM 43.0000 -82.3000 270° West 470 541 40,000  Level Toronto Center
Wed 03:36:27 PM 43.0000 -82.4833 270° West 480 552 40,000  Level Toronto Center
Wed 03:37:27 PM 42.9667 -82.6667 256° West 480 552 40,000 -242 Level Toronto Center
Wed 03:38:06 PM 42.9747 -82.7881 275° West 482 555 39,600 -1,091 Descending Cleveland Center
Wed 03:39:06 PM 42.9483 -82.9658 259° West 482 555 38,200 -1,240 Descending Cleveland Center
Wed 03:40:07 PM 42.9236 -83.1464 259° West 482 555 37,100 -595 Descending Cleveland Center
Wed 03:41:07 PM 42.8986 -83.3267 259° West 488 562 37,000 -650 Descending Cleveland Center
Wed 03:42:07 PM 42.8736 -83.4956 259° West 501 577 35,800 -1,261 Descending Cleveland Center
Wed 03:43:06 PM 42.8481 -83.6758 259° West 501 577 34,500 -1,361 Descending Cleveland Center
Wed 03:44:06 PM 42.8219 -83.8642 259° West 506 582 33,100 -1,438 Descending Cleveland Center
Wed 03:45:07 PM 42.7917 -84.0464 257° West 506 582 31,600 -1,289 Descending Cleveland Center
Wed 03:46:07 PM 42.7653 -84.2261 259° West 506 582 30,500 -881 Descending Cleveland Center
Wed 03:46:56 PM 42.7411 -84.3908 259° West 503 579 30,000 -270 Descending Chicago Center
Wed 03:47:58 PM 42.7131 -84.5758 258° West 500 575 30,000  Level Chicago Center
Wed 03:49:00 PM 42.6850 -84.7592 258° West 497 572 30,000  Level Chicago Center
Wed 03:50:02 PM 42.6561 -84.9422 258° West 496 571 30,000  Level Chicago Center
Wed 03:51:05 PM 42.6264 -85.1256 258° West 496 571 30,000 -288 Level Chicago Center
Wed 03:52:07 PM 42.5919 -85.3439 258° West 493 567 29,400 -1,306 Descending Chicago Center
Wed 03:53:09 PM 42.5614 -85.5281 257° West 498 573 27,300 -2,419 Descending Chicago Center
Wed 03:54:11 PM 42.5319 -85.7067 257° West 487 560 24,400 -2,855 Descending Chicago Center
Wed 03:55:13 PM 42.5036 -85.8731 257° West 456 525 21,400 -2,516 Descending Chicago Center
Wed 03:56:15 PM 42.4781 -86.0303 258° West 431 496 19,200 -2,177 Descending Chicago Center
Wed 03:57:17 PM 42.4606 -86.1803 261° West 411 473 16,900 -1,597 Descending Chicago Center
Wed 03:58:19 PM 42.4525 -86.3325 266° West 404 465 15,900 -823 Descending Chicago Center
Wed 03:59:21 PM 42.4450 -86.4983 267° West 360 414 15,200 -1,548 Descending Chicago Center
Wed 04:00:23 PM 42.4386 -86.6161 266° West 319 367 12,700 -2,160 Descending Chicago Center
Wed 04:01:26 PM 42.4331 -86.7364 266° West 319 367 10,700 -1,680 Descending Chicago Center
Wed 04:02:28 PM 42.4269 -86.8447 266° West 291 335 9,200 -1,597 Descending Chicago Center
Wed 04:03:30 PM 42.4208 -86.9481 265° West 281 323 7,400 -1,694 Descending Chicago Center
Wed 04:04:32 PM 42.4144 -87.0442 265° West 260 299 5,700 -1,839 Descending Chicago Center
Wed 04:05:34 PM 42.4069 -87.1528 265° West 246 283 3,600 -1,306 Descending Chicago Center
Wed 04:06:36 PM 42.4014 -87.2436 265° West 243 280 3,000 -290 Descending Chicago Center
Wed 04:07:38 PM 42.3964 -87.3294 266° West 216 249 3,000 48 Level Chicago Center
Wed 04:08:40 PM 42.3917 -87.4089 265° West 214 246 3,100  Climbing Chicago Center
Wed 04:09:42 PM 42.3858 -87.4969 265° West 216 249 3,000 -97 Descending Chicago Center
Wed 04:10:44 PM 42.3806 -87.5658 264° West 219 252 2,900  Descending Chicago Center
Wed 04:11:47 PM 42.3703 -87.6506 261° West 219 252 3,000 96 Climbing Chicago Center
Wed 04:12:49 PM 42.3514 -87.7372 254° West 219 252 3,100  Climbing Chicago Center
Wed 04:13:51 PM 42.3350 -87.8164 254° West 216 249 3,000 -194 Descending Chicago Center
Wed 04:15:55 PM 42.2939 -87.9739 251° West 214 246 2,500 -161 Descending Chicago Center
Wed 04:16:57 PM 42.2389 -87.9722 179° South 222 255 2,500 -97 Level Chicago Center
Wed 04:17:59 PM 42.1889 -87.9425 156° South 203 234 2,300 -194 Descending Chicago Center
Wed 04:19:00 PM 42.1143 -87.9015 169° South  Level Estimated
Wed 04:26:00 PM 42.1143 -87.9015 169° South  Level Estimated
Wed 04:27:00 PM 42.1143 -87.9015 169° South  Level Estimated

Login

Don't have an account? Register now (free) for customized features, flight alerts, and more!